sensor_id;sensor_type;location;lat;lon;timestamp;temperature;humidity
16287;DHT22;8251;53.568;10.018;2023-04-06T00:00:28;8.90;57.60
16287;DHT22;8251;53.568;10.018;2023-04-06T00:02:55;8.90;57.80
16287;DHT22;8251;53.568;10.018;2023-04-06T00:05:22;8.80;58.00
16287;DHT22;8251;53.568;10.018;2023-04-06T00:07:49;8.80;58.20
16287;DHT22;8251;53.568;10.018;2023-04-06T00:10:16;8.70;58.40
16287;DHT22;8251;53.568;10.018;2023-04-06T00:12:43;8.70;58.60
16287;DHT22;8251;53.568;10.018;2023-04-06T00:15:10;8.60;58.70
16287;DHT22;8251;53.568;10.018;2023-04-06T00:17:40;8.60;58.80
16287;DHT22;8251;53.568;10.018;2023-04-06T00:20:08;8.60;58.90
16287;DHT22;8251;53.568;10.018;2023-04-06T00:22:35;8.60;59.10
16287;DHT22;8251;53.568;10.018;2023-04-06T00:25:02;8.50;59.10
16287;DHT22;8251;53.568;10.018;2023-04-06T00:27:29;8.50;59.30
16287;DHT22;8251;53.568;10.018;2023-04-06T00:29:56;8.50;59.50
16287;DHT22;8251;53.568;10.018;2023-04-06T00:32:23;8.40;59.60
16287;DHT22;8251;53.568;10.018;2023-04-06T00:34:51;8.30;59.70
16287;DHT22;8251;53.568;10.018;2023-04-06T00:37:18;8.30;59.80
16287;DHT22;8251;53.568;10.018;2023-04-06T00:39:45;8.30;60.00
16287;DHT22;8251;53.568;10.018;2023-04-06T00:42:13;8.30;60.20
16287;DHT22;8251;53.568;10.018;2023-04-06T00:44:40;8.30;60.20
16287;DHT22;8251;53.568;10.018;2023-04-06T00:47:07;8.30;60.30
16287;DHT22;8251;53.568;10.018;2023-04-06T00:49:34;8.20;60.50
16287;DHT22;8251;53.568;10.018;2023-04-06T00:52:02;8.20;60.60
16287;DHT22;8251;53.568;10.018;2023-04-06T00:54:30;8.20;60.80
16287;DHT22;8251;53.568;10.018;2023-04-06T00:56:57;8.20;61.00
16287;DHT22;8251;53.568;10.018;2023-04-06T00:59:24;8.20;61.10
16287;DHT22;8251;53.568;10.018;2023-04-06T01:01:51;8.20;61.20
16287;DHT22;8251;53.568;10.018;2023-04-06T01:04:18;8.20;61.20
16287;DHT22;8251;53.568;10.018;2023-04-06T01:06:47;8.10;61.20
16287;DHT22;8251;53.568;10.018;2023-04-06T01:09:17;8.10;61.20
16287;DHT22;8251;53.568;10.018;2023-04-06T01:11:44;8.10;61.40
16287;DHT22;8251;53.568;10.018;2023-04-06T01:14:11;8.00;61.50
16287;DHT22;8251;53.568;10.018;2023-04-06T01:16:38;8.00;61.80
16287;DHT22;8251;53.568;10.018;2023-04-06T01:19:22;8.00;61.90
16287;DHT22;8251;53.568;10.018;2023-04-06T01:21:49;8.00;62.00
16287;DHT22;8251;53.568;10.018;2023-04-06T01:24:20;8.00;62.00
16287;DHT22;8251;53.568;10.018;2023-04-06T01:26:47;8.00;62.20
16287;DHT22;8251;53.568;10.018;2023-04-06T01:29:14;8.00;62.40
16287;DHT22;8251;53.568;10.018;2023-04-06T01:31:40;8.00;62.30
16287;DHT22;8251;53.568;10.018;2023-04-06T01:34:07;8.00;62.30
16287;DHT22;8251;53.568;10.018;2023-04-06T01:36:34;8.00;62.40
16287;DHT22;8251;53.568;10.018;2023-04-06T01:39:01;7.90;62.40
16287;DHT22;8251;53.568;10.018;2023-04-06T01:41:29;7.90;62.60
16287;DHT22;8251;53.568;10.018;2023-04-06T01:43:58;7.90;62.80
16287;DHT22;8251;53.568;10.018;2023-04-06T01:46:25;7.90;63.00
16287;DHT22;8251;53.568;10.018;2023-04-06T01:48:52;7.80;63.10
16287;DHT22;8251;53.568;10.018;2023-04-06T01:51:19;7.80;63.20
16287;DHT22;8251;53.568;10.018;2023-04-06T01:53:46;7.80;63.50
16287;DHT22;8251;53.568;10.018;2023-04-06T01:56:13;7.80;63.60
16287;DHT22;8251;53.568;10.018;2023-04-06T01:58:42;7.80;64.00
16287;DHT22;8251;53.568;10.018;2023-04-06T02:01:09;7.80;64.40
16287;DHT22;8251;53.568;10.018;2023-04-06T02:03:36;7.80;64.20
16287;DHT22;8251;53.568;10.018;2023-04-06T02:06:03;7.90;63.70
16287;DHT22;8251;53.568;10.018;2023-04-06T02:08:30;7.80;63.70
16287;DHT22;8251;53.568;10.018;2023-04-06T02:10:57;7.90;63.90
16287;DHT22;8251;53.568;10.018;2023-04-06T02:13:24;7.90;63.70
16287;DHT22;8251;53.568;10.018;2023-04-06T02:15:52;7.90;63.50
16287;DHT22;8251;53.568;10.018;2023-04-06T02:18:20;7.90;63.70
16287;DHT22;8251;53.568;10.018;2023-04-06T02:20:48;7.90;63.80
16287;DHT22;8251;53.568;10.018;2023-04-06T02:23:15;7.90;63.90
16287;DHT22;8251;53.568;10.018;2023-04-06T02:25:42;7.90;63.80
16287;DHT22;8251;53.568;10.018;2023-04-06T02:28:08;7.90;64.10
16287;DHT22;8251;53.568;10.018;2023-04-06T02:30:35;7.90;64.30
16287;DHT22;8251;53.568;10.018;2023-04-06T02:33:04;7.90;64.20
16287;DHT22;8251;53.568;10.018;2023-04-06T02:35:31;7.90;64.20
16287;DHT22;8251;53.568;10.018;2023-04-06T02:37:58;7.90;64.30
16287;DHT22;8251;53.568;10.018;2023-04-06T02:40:25;7.90;64.50
16287;DHT22;8251;53.568;10.018;2023-04-06T02:42:52;7.90;64.40
16287;DHT22;8251;53.568;10.018;2023-04-06T02:45:19;7.90;64.30
16287;DHT22;8251;53.568;10.018;2023-04-06T02:47:46;7.90;64.50
16287;DHT22;8251;53.568;10.018;2023-04-06T02:50:14;7.90;64.70
16287;DHT22;8251;53.568;10.018;2023-04-06T02:52:41;7.90;64.90
16287;DHT22;8251;53.568;10.018;2023-04-06T02:55:09;7.90;65.00
16287;DHT22;8251;53.568;10.018;2023-04-06T02:57:36;7.90;65.10
16287;DHT22;8251;53.568;10.018;2023-04-06T03:00:03;7.90;65.30
16287;DHT22;8251;53.568;10.018;2023-04-06T03:02:30;7.90;65.10
16287;DHT22;8251;53.568;10.018;2023-04-06T03:04:57;7.90;65.50
16287;DHT22;8251;53.568;10.018;2023-04-06T03:07:25;7.90;65.50
16287;DHT22;8251;53.568;10.018;2023-04-06T03:09:52;7.90;65.60
16287;DHT22;8251;53.568;10.018;2023-04-06T03:12:19;7.80;65.40
16287;DHT22;8251;53.568;10.018;2023-04-06T03:14:46;7.80;65.60
16287;DHT22;8251;53.568;10.018;2023-04-06T03:17:13;7.70;65.60
16287;DHT22;8251;53.568;10.018;2023-04-06T03:19:40;7.70;65.90
16287;DHT22;8251;53.568;10.018;2023-04-06T03:22:08;7.70;66.20
16287;DHT22;8251;53.568;10.018;2023-04-06T03:24:36;7.70;66.50
16287;DHT22;8251;53.568;10.018;2023-04-06T03:27:03;7.70;66.70
16287;DHT22;8251;53.568;10.018;2023-04-06T03:29:33;7.70;67.00
16287;DHT22;8251;53.568;10.018;2023-04-06T03:32:01;7.60;67.00
16287;DHT22;8251;53.568;10.018;2023-04-06T03:34:28;7.60;67.20
16287;DHT22;8251;53.568;10.018;2023-04-06T03:36:55;7.60;67.00
16287;DHT22;8251;53.568;10.018;2023-04-06T03:39:21;7.50;66.70
16287;DHT22;8251;53.568;10.018;2023-04-06T03:41:50;7.50;67.50
16287;DHT22;8251;53.568;10.018;2023-04-06T03:44:17;7.50;67.70
16287;DHT22;8251;53.568;10.018;2023-04-06T03:46:44;7.50;67.80
16287;DHT22;8251;53.568;10.018;2023-04-06T03:49:11;7.50;67.80
16287;DHT22;8251;53.568;10.018;2023-04-06T03:51:38;7.50;67.70
16287;DHT22;8251;53.568;10.018;2023-04-06T03:54:05;7.50;67.80
16287;DHT22;8251;53.568;10.018;2023-04-06T03:56:31;7.50;67.70
16287;DHT22;8251;53.568;10.018;2023-04-06T03:59:00;7.40;67.60
16287;DHT22;8251;53.568;10.018;2023-04-06T04:01:27;7.40;67.60
16287;DHT22;8251;53.568;10.018;2023-04-06T04:03:54;7.40;67.70
16287;DHT22;8251;53.568;10.018;2023-04-06T04:06:21;7.40;67.80
16287;DHT22;8251;53.568;10.018;2023-04-06T04:08:48;7.40;67.70
16287;DHT22;8251;53.568;10.018;2023-04-06T04:11:15;7.40;67.50
16287;DHT22;8251;53.568;10.018;2023-04-06T04:13:42;7.40;67.60
16287;DHT22;8251;53.568;10.018;2023-04-06T04:16:11;7.30;67.60
16287;DHT22;8251;53.568;10.018;2023-04-06T04:18:37;7.20;67.70
16287;DHT22;8251;53.568;10.018;2023-04-06T04:21:05;7.20;67.90
16287;DHT22;8251;53.568;10.018;2023-04-06T04:23:31;7.10;68.20
16287;DHT22;8251;53.568;10.018;2023-04-06T04:25:58;7.10;68.40
16287;DHT22;8251;53.568;10.018;2023-04-06T04:28:25;7.10;68.40
16287;DHT22;8251;53.568;10.018;2023-04-06T04:30:52;7.10;68.30
16287;DHT22;8251;53.568;10.018;2023-04-06T04:33:21;7.10;68.40
16287;DHT22;8251;53.568;10.018;2023-04-06T04:35:48;7.10;68.50
16287;DHT22;8251;53.568;10.018;2023-04-06T04:38:15;7.10;68.60
16287;DHT22;8251;53.568;10.018;2023-04-06T04:40:42;7.00;68.50
16287;DHT22;8251;53.568;10.018;2023-04-06T04:43:09;7.00;68.80
16287;DHT22;8251;53.568;10.018;2023-04-06T04:45:36;7.00;68.90
16287;DHT22;8251;53.568;10.018;2023-04-06T04:48:03;6.90;68.80
16287;DHT22;8251;53.568;10.018;2023-04-06T04:50:32;6.90;68.90
16287;DHT22;8251;53.568;10.018;2023-04-06T04:52:59;6.90;68.90
16287;DHT22;8251;53.568;10.018;2023-04-06T04:55:27;6.90;68.90
16287;DHT22;8251;53.568;10.018;2023-04-06T04:57:55;7.00;69.20
16287;DHT22;8251;53.568;10.018;2023-04-06T05:00:22;6.80;68.90
16287;DHT22;8251;53.568;10.018;2023-04-06T05:02:49;6.80;69.00
16287;DHT22;8251;53.568;10.018;2023-04-06T05:05:16;6.80;69.20
16287;DHT22;8251;53.568;10.018;2023-04-06T05:07:44;6.80;69.70
16287;DHT22;8251;53.568;10.018;2023-04-06T05:10:11;6.90;70.30
16287;DHT22;8251;53.568;10.018;2023-04-06T05:12:38;6.80;69.80
16287;DHT22;8251;53.568;10.018;2023-04-06T05:15:06;6.80;69.60
16287;DHT22;8251;53.568;10.018;2023-04-06T05:17:34;6.90;69.50
16287;DHT22;8251;53.568;10.018;2023-04-06T05:20:00;6.90;69.50
16287;DHT22;8251;53.568;10.018;2023-04-06T05:22:28;6.90;69.40
16287;DHT22;8251;53.568;10.018;2023-04-06T05:24:56;6.90;69.40
16287;DHT22;8251;53.568;10.018;2023-04-06T05:27:23;6.90;69.30
16287;DHT22;8251;53.568;10.018;2023-04-06T05:29:56;6.90;69.30
16287;DHT22;8251;53.568;10.018;2023-04-06T05:32:23;6.90;69.30
16287;DHT22;8251;53.568;10.018;2023-04-06T05:34:50;6.90;69.10
16287;DHT22;8251;53.568;10.018;2023-04-06T05:37:20;6.90;69.10
16287;DHT22;8251;53.568;10.018;2023-04-06T05:39:47;6.90;69.10
16287;DHT22;8251;53.568;10.018;2023-04-06T05:42:15;6.90;69.10
16287;DHT22;8251;53.568;10.018;2023-04-06T05:44:42;6.80;68.90
16287;DHT22;8251;53.568;10.018;2023-04-06T05:47:09;6.90;68.90
16287;DHT22;8251;53.568;10.018;2023-04-06T05:49:36;7.00;69.20
16287;DHT22;8251;53.568;10.018;2023-04-06T05:52:03;6.90;69.10
16287;DHT22;8251;53.568;10.018;2023-04-06T05:54:30;7.00;68.90
16287;DHT22;8251;53.568;10.018;2023-04-06T05:56:57;7.00;68.10
16287;DHT22;8251;53.568;10.018;2023-04-06T05:59:26;7.00;68.20
16287;DHT22;8251;53.568;10.018;2023-04-06T06:01:52;7.00;68.50
16287;DHT22;8251;53.568;10.018;2023-04-06T06:04:19;7.00;67.70
16287;DHT22;8251;53.568;10.018;2023-04-06T06:06:46;7.00;67.60
16287;DHT22;8251;53.568;10.018;2023-04-06T06:09:13;7.00;67.70
16287;DHT22;8251;53.568;10.018;2023-04-06T06:11:41;7.10;67.50
16287;DHT22;8251;53.568;10.018;2023-04-06T06:14:11;7.20;66.90
16287;DHT22;8251;53.568;10.018;2023-04-06T06:16:40;7.20;66.30
16287;DHT22;8251;53.568;10.018;2023-04-06T06:19:07;7.30;66.00
16287;DHT22;8251;53.568;10.018;2023-04-06T06:21:34;7.40;65.10
16287;DHT22;8251;53.568;10.018;2023-04-06T06:24:01;7.50;64.90
16287;DHT22;8251;53.568;10.018;2023-04-06T06:26:28;7.70;64.20
16287;DHT22;8251;53.568;10.018;2023-04-06T06:28:55;8.00;63.70
16287;DHT22;8251;53.568;10.018;2023-04-06T06:31:22;8.20;62.60
16287;DHT22;8251;53.568;10.018;2023-04-06T06:33:52;8.40;62.10
16287;DHT22;8251;53.568;10.018;2023-04-06T06:36:20;8.70;61.60
16287;DHT22;8251;53.568;10.018;2023-04-06T06:38:47;9.20;61.10
16287;DHT22;8251;53.568;10.018;2023-04-06T06:41:14;9.70;58.60
16287;DHT22;8251;53.568;10.018;2023-04-06T06:43:40;10.30;57.20
16287;DHT22;8251;53.568;10.018;2023-04-06T06:46:07;11.20;55.30
16287;DHT22;8251;53.568;10.018;2023-04-06T06:48:34;12.20;53.30
16287;DHT22;8251;53.568;10.018;2023-04-06T06:51:03;13.70;50.80
16287;DHT22;8251;53.568;10.018;2023-04-06T06:53:30;15.30;45.90
16287;DHT22;8251;53.568;10.018;2023-04-06T06:55:57;16.80;41.80
16287;DHT22;8251;53.568;10.018;2023-04-06T06:58:24;18.10;40.50
16287;DHT22;8251;53.568;10.018;2023-04-06T07:00:55;19.30;37.70
16287;DHT22;8251;53.568;10.018;2023-04-06T07:03:22;20.20;35.80
16287;DHT22;8251;53.568;10.018;2023-04-06T07:05:49;21.00;35.00
16287;DHT22;8251;53.568;10.018;2023-04-06T07:08:20;21.20;33.20
16287;DHT22;8251;53.568;10.018;2023-04-06T07:10:47;21.30;32.90
16287;DHT22;8251;53.568;10.018;2023-04-06T07:13:14;21.20;32.50
16287;DHT22;8251;53.568;10.018;2023-04-06T07:15:46;21.40;33.20
16287;DHT22;8251;53.568;10.018;2023-04-06T07:18:13;21.50;32.50
16287;DHT22;8251;53.568;10.018;2023-04-06T07:20:40;21.60;32.60
16287;DHT22;8251;53.568;10.018;2023-04-06T07:23:06;21.60;31.50
16287;DHT22;8251;53.568;10.018;2023-04-06T07:25:35;21.60;31.70
16287;DHT22;8251;53.568;10.018;2023-04-06T07:28:05;21.50;31.80
16287;DHT22;8251;53.568;10.018;2023-04-06T07:30:36;21.70;31.50
16287;DHT22;8251;53.568;10.018;2023-04-06T07:33:03;21.90;30.80
16287;DHT22;8251;53.568;10.018;2023-04-06T07:35:31;22.00;30.50
16287;DHT22;8251;53.568;10.018;2023-04-06T07:37:58;22.10;30.20
16287;DHT22;8251;53.568;10.018;2023-04-06T07:40:25;22.40;29.70
16287;DHT22;8251;53.568;10.018;2023-04-06T07:42:54;23.00;29.20
16287;DHT22;8251;53.568;10.018;2023-04-06T07:45:20;23.50;28.40
16287;DHT22;8251;53.568;10.018;2023-04-06T07:47:47;23.80;28.20
16287;DHT22;8251;53.568;10.018;2023-04-06T07:50:15;23.60;27.10
16287;DHT22;8251;53.568;10.018;2023-04-06T07:52:43;23.00;28.10
16287;DHT22;8251;53.568;10.018;2023-04-06T07:55:10;22.70;28.70
16287;DHT22;8251;53.568;10.018;2023-04-06T07:57:37;22.60;28.60
16287;DHT22;8251;53.568;10.018;2023-04-06T08:00:06;22.70;28.80
16287;DHT22;8251;53.568;10.018;2023-04-06T08:02:34;22.90;29.00
16287;DHT22;8251;53.568;10.018;2023-04-06T08:05:01;23.10;29.10
16287;DHT22;8251;53.568;10.018;2023-04-06T08:07:28;23.50;28.50
16287;DHT22;8251;53.568;10.018;2023-04-06T08:09:55;23.60;28.00
16287;DHT22;8251;53.568;10.018;2023-04-06T08:12:22;23.90;28.50
16287;DHT22;8251;53.568;10.018;2023-04-06T08:14:49;24.20;27.10
16287;DHT22;8251;53.568;10.018;2023-04-06T08:17:17;24.50;26.50
16287;DHT22;8251;53.568;10.018;2023-04-06T08:19:44;24.40;26.60
16287;DHT22;8251;53.568;10.018;2023-04-06T08:22:11;24.10;26.70
16287;DHT22;8251;53.568;10.018;2023-04-06T08:24:52;23.80;25.90
16287;DHT22;8251;53.568;10.018;2023-04-06T08:27:19;23.40;26.50
16287;DHT22;8251;53.568;10.018;2023-04-06T08:29:46;23.40;27.50
16287;DHT22;8251;53.568;10.018;2023-04-06T08:32:13;23.50;26.90
16287;DHT22;8251;53.568;10.018;2023-04-06T08:34:42;23.60;26.50
16287;DHT22;8251;53.568;10.018;2023-04-06T08:37:09;23.50;26.50
16287;DHT22;8251;53.568;10.018;2023-04-06T08:39:36;23.70;26.50
16287;DHT22;8251;53.568;10.018;2023-04-06T08:42:03;23.70;26.40
16287;DHT22;8251;53.568;10.018;2023-04-06T08:44:31;24.10;26.30
16287;DHT22;8251;53.568;10.018;2023-04-06T08:46:59;24.30;25.50
16287;DHT22;8251;53.568;10.018;2023-04-06T08:49:27;24.60;25.40
16287;DHT22;8251;53.568;10.018;2023-04-06T08:51:56;24.60;25.40
16287;DHT22;8251;53.568;10.018;2023-04-06T08:54:24;24.50;24.80
16287;DHT22;8251;53.568;10.018;2023-04-06T08:56:52;24.50;25.40
16287;DHT22;8251;53.568;10.018;2023-04-06T08:59:20;24.70;24.80
16287;DHT22;8251;53.568;10.018;2023-04-06T09:01:46;24.90;25.10
16287;DHT22;8251;53.568;10.018;2023-04-06T09:04:14;25.10;24.20
16287;DHT22;8251;53.568;10.018;2023-04-06T09:06:42;25.40;24.30
16287;DHT22;8251;53.568;10.018;2023-04-06T09:09:10;25.40;23.70
16287;DHT22;8251;53.568;10.018;2023-04-06T09:11:45;25.10;23.00
16287;DHT22;8251;53.568;10.018;2023-04-06T09:14:12;24.70;23.00
16287;DHT22;8251;53.568;10.018;2023-04-06T09:16:42;24.40;23.50
16287;DHT22;8251;53.568;10.018;2023-04-06T09:19:11;24.00;24.00
16287;DHT22;8251;53.568;10.018;2023-04-06T09:21:38;23.50;24.60
16287;DHT22;8251;53.568;10.018;2023-04-06T09:24:08;23.20;25.30
16287;DHT22;8251;53.568;10.018;2023-04-06T09:26:47;23.00;25.50
16287;DHT22;8251;53.568;10.018;2023-04-06T09:29:24;23.00;25.20
16287;DHT22;8251;53.568;10.018;2023-04-06T09:31:52;22.80;25.20
16287;DHT22;8251;53.568;10.018;2023-04-06T09:34:22;22.50;25.70
16287;DHT22;8251;53.568;10.018;2023-04-06T09:36:49;22.10;26.10
16287;DHT22;8251;53.568;10.018;2023-04-06T09:39:20;21.80;26.70
16287;DHT22;8251;53.568;10.018;2023-04-06T09:41:56;21.60;26.70
16287;DHT22;8251;53.568;10.018;2023-04-06T09:44:23;21.30;27.20
16287;DHT22;8251;53.568;10.018;2023-04-06T09:46:53;21.20;27.70
16287;DHT22;8251;53.568;10.018;2023-04-06T09:49:20;21.20;28.00
16287;DHT22;8251;53.568;10.018;2023-04-06T09:51:53;21.60;28.00
16287;DHT22;8251;53.568;10.018;2023-04-06T09:54:22;21.90;27.50
16287;DHT22;8251;53.568;10.018;2023-04-06T09:56:52;22.30;27.50
16287;DHT22;8251;53.568;10.018;2023-04-06T09:59:36;22.70;26.40
16287;DHT22;8251;53.568;10.018;2023-04-06T10:02:05;22.90;26.10
16287;DHT22;8251;53.568;10.018;2023-04-06T10:04:39;23.10;25.80
16287;DHT22;8251;53.568;10.018;2023-04-06T10:07:09;23.40;24.90
16287;DHT22;8251;53.568;10.018;2023-04-06T10:09:38;23.60;24.90
16287;DHT22;8251;53.568;10.018;2023-04-06T10:12:06;23.70;24.50
16287;DHT22;8251;53.568;10.018;2023-04-06T10:14:35;23.70;24.30
16287;DHT22;8251;53.568;10.018;2023-04-06T10:17:03;23.70;24.10
16287;DHT22;8251;53.568;10.018;2023-04-06T10:19:39;23.90;24.00
16287;DHT22;8251;53.568;10.018;2023-04-06T10:22:10;23.80;23.80
16287;DHT22;8251;53.568;10.018;2023-04-06T10:24:39;23.60;24.10
16287;DHT22;8251;53.568;10.018;2023-04-06T10:27:06;23.60;25.00
16287;DHT22;8251;53.568;10.018;2023-04-06T10:29:46;24.00;25.10
16287;DHT22;8251;53.568;10.018;2023-04-06T10:32:14;24.20;23.90
16287;DHT22;8251;53.568;10.018;2023-04-06T10:34:41;24.40;24.20
16287;DHT22;8251;53.568;10.018;2023-04-06T10:37:13;24.80;23.30
16287;DHT22;8251;53.568;10.018;2023-04-06T10:39:46;24.90;23.50
16287;DHT22;8251;53.568;10.018;2023-04-06T10:42:14;24.80;22.90
16287;DHT22;8251;53.568;10.018;2023-04-06T10:44:42;24.80;23.20
16287;DHT22;8251;53.568;10.018;2023-04-06T10:47:17;24.50;23.10
16287;DHT22;8251;53.568;10.018;2023-04-06T10:49:45;24.40;23.50
16287;DHT22;8251;53.568;10.018;2023-04-06T10:52:12;24.20;24.40
16287;DHT22;8251;53.568;10.018;2023-04-06T10:54:42;24.10;24.60
16287;DHT22;8251;53.568;10.018;2023-04-06T10:57:10;23.70;24.30
16287;DHT22;8251;53.568;10.018;2023-04-06T10:59:36;23.40;24.90
16287;DHT22;8251;53.568;10.018;2023-04-06T11:02:03;23.40;25.50
16287;DHT22;8251;53.568;10.018;2023-04-06T11:04:32;23.40;25.00
16287;DHT22;8251;53.568;10.018;2023-04-06T11:07:00;23.00;25.00
16287;DHT22;8251;53.568;10.018;2023-04-06T11:09:28;22.80;25.00
16287;DHT22;8251;53.568;10.018;2023-04-06T11:11:55;22.50;25.40
16287;DHT22;8251;53.568;10.018;2023-04-06T11:14:22;22.40;25.50
16287;DHT22;8251;53.568;10.018;2023-04-06T11:20:13;22.20;25.80
16287;DHT22;8251;53.568;10.018;2023-04-06T11:22:49;22.20;26.00
16287;DHT22;8251;53.568;10.018;2023-04-06T11:25:16;21.90;25.50
16287;DHT22;8251;53.568;10.018;2023-04-06T11:27:43;21.80;26.50
16287;DHT22;8251;53.568;10.018;2023-04-06T11:30:12;21.90;26.90
16287;DHT22;8251;53.568;10.018;2023-04-06T11:32:40;22.00;26.60
16287;DHT22;8251;53.568;10.018;2023-04-06T11:35:11;22.20;27.60
16287;DHT22;8251;53.568;10.018;2023-04-06T11:37:43;22.40;26.00
16287;DHT22;8251;53.568;10.018;2023-04-06T11:40:10;22.40;25.90
16287;DHT22;8251;53.568;10.018;2023-04-06T11:42:38;22.30;26.30
16287;DHT22;8251;53.568;10.018;2023-04-06T11:45:07;22.50;26.80
16287;DHT22;8251;53.568;10.018;2023-04-06T11:47:35;22.30;25.50
16287;DHT22;8251;53.568;10.018;2023-04-06T11:50:09;22.40;26.70
16287;DHT22;8251;53.568;10.018;2023-04-06T11:52:37;22.30;25.90
16287;DHT22;8251;53.568;10.018;2023-04-06T11:55:13;22.30;25.80
16287;DHT22;8251;53.568;10.018;2023-04-06T11:57:41;22.30;25.70
16287;DHT22;8251;53.568;10.018;2023-04-06T12:00:09;22.30;26.40
16287;DHT22;8251;53.568;10.018;2023-04-06T12:02:37;22.40;26.10
16287;DHT22;8251;53.568;10.018;2023-04-06T12:05:06;22.50;25.60
16287;DHT22;8251;53.568;10.018;2023-04-06T12:07:33;22.50;25.90
16287;DHT22;8251;53.568;10.018;2023-04-06T12:10:01;22.50;26.20
16287;DHT22;8251;53.568;10.018;2023-04-06T12:12:30;22.70;26.90
16287;DHT22;8251;53.568;10.018;2023-04-06T12:14:57;22.80;26.60
16287;DHT22;8251;53.568;10.018;2023-04-06T12:17:25;22.70;25.60
16287;DHT22;8251;53.568;10.018;2023-04-06T12:19:52;22.50;25.30
16287;DHT22;8251;53.568;10.018;2023-04-06T12:22:19;22.20;25.60
16287;DHT22;8251;53.568;10.018;2023-04-06T12:24:46;22.10;25.70
16287;DHT22;8251;53.568;10.018;2023-04-06T12:27:15;21.90;25.80
16287;DHT22;8251;53.568;10.018;2023-04-06T12:29:44;21.90;26.20
16287;DHT22;8251;53.568;10.018;2023-04-06T12:32:11;22.00;26.90
16287;DHT22;8251;53.568;10.018;2023-04-06T12:34:38;22.10;27.10
16287;DHT22;8251;53.568;10.018;2023-04-06T12:37:06;22.20;26.10
16287;DHT22;8251;53.568;10.018;2023-04-06T12:39:33;22.10;25.90
16287;DHT22;8251;53.568;10.018;2023-04-06T12:42:01;22.00;26.10
16287;DHT22;8251;53.568;10.018;2023-04-06T12:44:28;21.90;26.10
16287;DHT22;8251;53.568;10.018;2023-04-06T12:46:57;21.90;26.60
16287;DHT22;8251;53.568;10.018;2023-04-06T12:49:24;21.90;26.90
16287;DHT22;8251;53.568;10.018;2023-04-06T12:51:52;21.90;26.50
16287;DHT22;8251;53.568;10.018;2023-04-06T12:54:19;21.70;26.30
16287;DHT22;8251;53.568;10.018;2023-04-06T12:56:46;21.70;26.60
16287;DHT22;8251;53.568;10.018;2023-04-06T12:59:13;21.80;27.30
16287;DHT22;8251;53.568;10.018;2023-04-06T13:01:40;21.80;26.60
16287;DHT22;8251;53.568;10.018;2023-04-06T13:04:08;21.90;27.30
16287;DHT22;8251;53.568;10.018;2023-04-06T13:06:35;21.90;26.40
16287;DHT22;8251;53.568;10.018;2023-04-06T13:09:02;22.00;26.50
16287;DHT22;8251;53.568;10.018;2023-04-06T13:11:31;21.90;26.90
16287;DHT22;8251;53.568;10.018;2023-04-06T13:13:57;22.00;27.10
16287;DHT22;8251;53.568;10.018;2023-04-06T13:16:24;22.00;26.50
16287;DHT22;8251;53.568;10.018;2023-04-06T13:18:51;22.10;27.10
16287;DHT22;8251;53.568;10.018;2023-04-06T13:21:19;22.10;26.80
16287;DHT22;8251;53.568;10.018;2023-04-06T13:23:47;22.10;27.10
16287;DHT22;8251;53.568;10.018;2023-04-06T13:26:14;21.90;27.00
16287;DHT22;8251;53.568;10.018;2023-04-06T13:28:43;21.90;26.50
16287;DHT22;8251;53.568;10.018;2023-04-06T13:31:11;21.80;27.00
16287;DHT22;8251;53.568;10.018;2023-04-06T13:33:38;21.70;27.00
16287;DHT22;8251;53.568;10.018;2023-04-06T13:36:06;21.60;27.00
16287;DHT22;8251;53.568;10.018;2023-04-06T13:38:35;21.50;26.90
16287;DHT22;8251;53.568;10.018;2023-04-06T13:41:04;21.30;27.40
16287;DHT22;8251;53.568;10.018;2023-04-06T13:43:31;21.10;27.80
16287;DHT22;8251;53.568;10.018;2023-04-06T13:45:58;21.10;27.90
16287;DHT22;8251;53.568;10.018;2023-04-06T13:48:26;20.80;27.70
16287;DHT22;8251;53.568;10.018;2023-04-06T13:50:53;20.70;28.10
16287;DHT22;8251;53.568;10.018;2023-04-06T13:53:20;20.50;28.50
16287;DHT22;8251;53.568;10.018;2023-04-06T13:55:54;20.50;28.70
16287;DHT22;8251;53.568;10.018;2023-04-06T13:58:21;20.30;28.50
16287;DHT22;8251;53.568;10.018;2023-04-06T14:00:48;20.30;29.10
16287;DHT22;8251;53.568;10.018;2023-04-06T14:03:15;20.20;29.30
16287;DHT22;8251;53.568;10.018;2023-04-06T14:05:42;20.20;28.90
16287;DHT22;8251;53.568;10.018;2023-04-06T14:08:09;20.10;29.30
16287;DHT22;8251;53.568;10.018;2023-04-06T14:10:37;20.10;29.20
16287;DHT22;8251;53.568;10.018;2023-04-06T14:13:06;20.00;29.00
16287;DHT22;8251;53.568;10.018;2023-04-06T14:15:33;19.90;29.00
16287;DHT22;8251;53.568;10.018;2023-04-06T14:18:03;19.80;29.20
16287;DHT22;8251;53.568;10.018;2023-04-06T14:20:31;19.80;29.50
16287;DHT22;8251;53.568;10.018;2023-04-06T14:22:59;19.80;29.30
16287;DHT22;8251;53.568;10.018;2023-04-06T14:25:26;19.80;29.80
16287;DHT22;8251;53.568;10.018;2023-04-06T14:27:53;19.70;29.40
16287;DHT22;8251;53.568;10.018;2023-04-06T14:30:22;19.50;29.50
16287;DHT22;8251;53.568;10.018;2023-04-06T14:32:48;19.50;29.80
16287;DHT22;8251;53.568;10.018;2023-04-06T14:35:15;19.30;30.00
16287;DHT22;8251;53.568;10.018;2023-04-06T14:37:42;19.20;30.10
16287;DHT22;8251;53.568;10.018;2023-04-06T14:40:10;19.00;30.10
16287;DHT22;8251;53.568;10.018;2023-04-06T14:42:37;19.00;30.30
16287;DHT22;8251;53.568;10.018;2023-04-06T14:45:04;18.90;30.10
16287;DHT22;8251;53.568;10.018;2023-04-06T14:47:33;18.80;30.30
16287;DHT22;8251;53.568;10.018;2023-04-06T14:50:00;18.70;30.60
16287;DHT22;8251;53.568;10.018;2023-04-06T14:52:27;18.60;30.50
16287;DHT22;8251;53.568;10.018;2023-04-06T14:54:53;18.60;30.80
16287;DHT22;8251;53.568;10.018;2023-04-06T14:57:20;18.50;31.00
16287;DHT22;8251;53.568;10.018;2023-04-06T14:59:48;18.40;31.30
16287;DHT22;8251;53.568;10.018;2023-04-06T15:02:14;18.30;31.50
16287;DHT22;8251;53.568;10.018;2023-04-06T15:04:44;18.30;31.30
16287;DHT22;8251;53.568;10.018;2023-04-06T15:07:11;18.30;31.80
16287;DHT22;8251;53.568;10.018;2023-04-06T15:09:38;18.30;31.80
16287;DHT22;8251;53.568;10.018;2023-04-06T15:12:05;18.40;31.60
16287;DHT22;8251;53.568;10.018;2023-04-06T15:14:32;18.40;31.40
16287;DHT22;8251;53.568;10.018;2023-04-06T15:16:59;18.50;31.50
16287;DHT22;8251;53.568;10.018;2023-04-06T15:19:27;18.50;31.30
16287;DHT22;8251;53.568;10.018;2023-04-06T15:21:55;18.50;30.90
16287;DHT22;8251;53.568;10.018;2023-04-06T15:24:22;18.30;31.10
16287;DHT22;8251;53.568;10.018;2023-04-06T15:26:49;18.30;31.30
16287;DHT22;8251;53.568;10.018;2023-04-06T15:29:16;18.30;31.20
16287;DHT22;8251;53.568;10.018;2023-04-06T15:31:43;18.40;31.30
16287;DHT22;8251;53.568;10.018;2023-04-06T15:34:10;18.40;30.90
16287;DHT22;8251;53.568;10.018;2023-04-06T15:36:37;18.30;31.10
16287;DHT22;8251;53.568;10.018;2023-04-06T15:39:06;18.10;31.30
16287;DHT22;8251;53.568;10.018;2023-04-06T15:41:34;18.00;31.40
16287;DHT22;8251;53.568;10.018;2023-04-06T15:44:01;18.00;31.80